Time;durP1;ratioP1;P1;durP2;ratioP2;P2;SDS_P1;SDS_P2;PMS_P1;PMS_P2;Temp;Humidity;BMP_temperature;BMP_pressure;BME280_temperature;BME280_humidity;BME280_pressure;Samples;Min_cycle;Max_cycle;Signal;HPM_P1;HPM_P2
2020/12/05 00:02:07;;;;;;;34.80;16.77;;;;;;;6.02;71.90;94466.84;5034927;28;20635;-87
2020/12/05 00:04:32;;;;;;;39.40;17.67;;;;;;;5.94;72.62;94478.28;5035117;28;20164;-85
2020/12/05 00:06:58;;;;;;;32.47;16.17;;;;;;;6.30;70.83;94488.28;5034742;28;20203;-88
2020/12/05 00:09:23;;;;;;;33.63;16.60;;;;;;;6.51;70.13;94490.06;5034435;28;20250;-83
2020/12/05 00:11:49;;;;;;;33.37;17.03;;;;;;;6.36;71.20;94483.53;5032963;28;20659;-83
2020/12/05 00:14:14;;;;;;;33.33;16.83;;;;;;;6.48;69.68;94470.31;5032756;28;20705;-82
2020/12/05 00:16:40;;;;;;;31.87;17.13;;;;;;;6.66;69.52;94467.47;5034396;28;20649;-83
2020/12/05 00:19:05;;;;;;;31.23;15.97;;;;;;;6.89;68.98;94498.53;5039913;28;20622;-83
2020/12/05 00:21:31;;;;;;;30.47;15.83;;;;;;;6.79;69.16;94506.16;5034079;28;20165;-83
2020/12/05 00:23:56;;;;;;;37.97;16.13;;;;;;;6.69;68.91;94506.59;5032976;28;20311;-81
2020/12/05 00:26:22;;;;;;;31.13;16.43;;;;;;;6.85;68.83;94500.34;5032079;28;22510;-80
2020/12/05 00:28:48;;;;;;;34.43;17.57;;;;;;;6.94;68.27;94505.53;5033452;28;20295;-82
2020/12/05 00:31:16;;;;;;;30.60;15.57;;;;;;;6.59;69.35;94505.16;5032628;28;20169;-81
2020/12/05 00:33:44;;;;;;;35.40;16.53;;;;;;;6.89;67.91;94501.19;5033465;28;20676;-82
2020/12/05 00:36:16;;;;;;;31.97;16.23;;;;;;;6.61;69.20;94513.53;5034389;28;20949;-83
2020/12/05 00:38:41;;;;;;;28.23;14.77;;;;;;;6.85;68.81;94505.66;5033219;28;20582;-84
2020/12/05 00:41:07;;;;;;;30.13;16.87;;;;;;;6.51;69.68;94509.44;5034118;28;21266;-84
2020/12/05 00:43:33;;;;;;;30.23;15.83;;;;;;;6.55;70.70;94510.31;5033425;28;20563;-82
2020/12/05 00:45:59;;;;;;;30.33;16.00;;;;;;;6.30;70.80;94511.38;5033917;28;20172;-82
2020/12/05 00:48:24;;;;;;;30.13;15.93;;;;;;;6.26;71.46;94515.75;5033833;28;20724;-84
2020/12/05 00:50:50;;;;;;;30.90;16.00;;;;;;;6.13;72.62;94509.66;5033283;28;20188;-82
2020/12/05 00:53:16;;;;;;;31.27;15.83;;;;;;;6.52;72.39;94523.47;5034743;28;20183;-82
2020/12/05 00:55:47;;;;;;;25.83;15.00;;;;;;;6.88;70.31;94520.88;5033288;28;20188;-83
2020/12/05 00:58:12;;;;;;;29.67;15.23;;;;;;;6.82;70.83;94522.22;5039150;28;20173;-81
2020/12/05 01:00:38;;;;;;;25.30;14.03;;;;;;;6.66;71.71;94526.59;5040389;28;21147;-82
2020/12/05 01:03:04;;;;;;;30.33;14.70;;;;;;;6.71;71.81;94529.03;5045010;28;20224;-83
2020/12/05 01:05:32;;;;;;;26.37;13.40;;;;;;;6.95;70.41;94533.63;5055028;28;20845;-85
2020/12/05 01:07:57;;;;;;;26.00;12.13;;;;;;;6.79;71.56;94524.75;5040813;28;20297;-83
2020/12/05 01:10:23;;;;;;;26.60;13.30;;;;;;;7.09;70.26;94523.47;5035410;28;20591;-82
2020/12/05 01:12:48;;;;;;;26.17;12.53;;;;;;;7.01;69.87;94526.97;5034389;28;20176;-83
2020/12/05 01:15:14;;;;;;;26.50;12.90;;;;;;;6.81;69.68;94504.75;5033611;28;20195;-80
2020/12/05 01:17:39;;;;;;;24.40;13.57;;;;;;;7.12;69.16;94527.31;5034627;28;20165;-83
2020/12/05 01:20:05;;;;;;;20.80;12.27;;;;;;;6.76;71.06;94528.84;5032862;28;20199;-82
2020/12/05 01:22:31;;;;;;;21.73;11.97;;;;;;;6.89;70.59;94516.34;5033167;28;20175;-84
2020/12/05 01:24:57;;;;;;;24.83;12.93;;;;;;;7.00;69.27;94517.47;5031619;28;20590;-83
2020/12/05 01:27:22;;;;;;;23.13;12.87;;;;;;;6.92;69.41;94518.38;5033107;28;20272;-81
2020/12/05 01:29:48;;;;;;;22.97;12.37;;;;;;;6.79;68.70;94500.84;5034687;28;20326;-83
2020/12/05 01:32:13;;;;;;;21.63;11.83;;;;;;;6.95;69.03;94523.00;5034063;28;20227;-82
2020/12/05 01:34:39;;;;;;;27.97;12.57;;;;;;;6.91;69.49;94524.78;5034372;28;20195;-80
2020/12/05 01:37:04;;;;;;;23.43;12.23;;;;;;;7.00;68.02;94516.69;5033907;28;20168;-81
2020/12/05 01:39:30;;;;;;;22.93;12.77;;;;;;;7.04;67.67;94531.66;5032785;28;20542;-83
2020/12/05 01:41:55;;;;;;;20.93;12.17;;;;;;;6.63;69.49;94512.13;5031841;28;20179;-80
2020/12/05 01:44:21;;;;;;;23.03;12.13;;;;;;;6.52;70.78;94521.59;5032305;28;20254;-79
2020/12/05 01:46:47;;;;;;;26.10;12.33;;;;;;;6.69;70.68;94535.78;5032640;28;20172;-80
2020/12/05 01:49:16;;;;;;;26.30;12.23;;;;;;;6.86;68.44;94536.38;5032338;28;20208;-83
2020/12/05 01:51:42;;;;;;;26.57;11.73;;;;;;;6.84;68.11;94535.91;5032315;28;20602;-83
2020/12/05 01:54:07;;;;;;;22.63;11.67;;;;;;;6.73;68.40;94526.06;5014428;28;20629;-85
2020/12/05 01:56:33;;;;;;;23.63;12.67;;;;;;;6.47;69.51;94508.53;5032065;28;20260;-81
2020/12/05 01:58:58;;;;;;;22.67;11.37;;;;;;;6.56;69.25;94519.81;5033410;28;20631;-81
2020/12/05 02:01:25;;;;;;;24.23;11.67;;;;;;;6.45;69.01;94517.91;5032145;28;20307;-82
2020/12/05 02:03:54;;;;;;;21.83;11.93;;;;;;;6.40;70.27;94524.22;5031926;28;20650;-79
2020/12/05 02:06:42;;;;;;;27.77;12.23;;;;;;;6.36;70.47;94518.00;5032113;28;20579;-80
2020/12/05 02:09:14;;;;;;;19.60;11.13;;;;;;;6.39;69.41;94505.97;5031766;28;20630;-84
2020/12/05 02:11:41;;;;;;;25.10;12.07;;;;;;;6.34;69.61;94504.28;5030979;28;20567;-82
2020/12/05 02:14:09;;;;;;;20.37;10.13;;;;;;;6.70;68.23;94521.41;5017977;28;20591;-82
2020/12/05 02:16:35;;;;;;;23.40;11.53;;;;;;;6.60;68.77;94514.66;5014867;28;20574;-80
2020/12/05 02:19:01;;;;;;;21.73;12.17;;;;;;;6.48;69.75;94510.09;5014169;28;21220;-81
2020/12/05 02:21:28;;;;;;;24.20;11.63;;;;;;;6.53;69.82;94509.88;5030543;28;20586;-82
2020/12/05 02:23:55;;;;;;;23.40;12.63;;;;;;;6.59;69.26;94516.53;5031837;28;20169;-81
2020/12/05 02:26:21;;;;;;;24.73;11.90;;;;;;;6.76;68.03;94514.78;5014187;28;20633;-82
2020/12/05 02:28:46;;;;;;;20.13;10.97;;;;;;;6.31;69.32;94519.00;4997556;28;20650;-80
2020/12/05 02:31:12;;;;;;;27.10;12.67;;;;;;;6.42;69.19;94516.72;5031478;28;20219;-81
2020/12/05 02:33:38;;;;;;;19.73;11.97;;;;;;;6.52;68.83;94500.38;5013900;28;20212;-82
2020/12/05 02:36:04;;;;;;;22.33;12.47;;;;;;;6.38;69.16;94517.69;5031109;28;20180;-81
2020/12/05 02:38:35;;;;;;;22.97;12.17;;;;;;;6.56;68.46;94514.50;5030192;28;20704;-82
2020/12/05 02:41:01;;;;;;;24.03;11.30;;;;;;;6.59;68.26;94519.19;5030408;28;20970;-82
2020/12/05 02:43:26;;;;;;;18.47;11.00;;;;;;;6.47;68.43;94503.25;5014548;28;20587;-82
2020/12/05 02:45:52;;;;;;;22.93;11.37;;;;;;;6.44;68.64;94505.75;5030026;28;20566;-82
2020/12/05 02:48:18;;;;;;;17.73;11.37;;;;;;;6.25;68.75;94511.56;5034041;28;20207;-81
2020/12/05 02:50:43;;;;;;;20.80;10.43;;;;;;;6.14;69.83;94518.38;5030078;28;20574;-82
2020/12/05 02:53:09;;;;;;;24.07;12.30;;;;;;;6.06;69.54;94515.47;5031304;28;20192;-81
2020/12/05 02:55:34;;;;;;;18.50;10.33;;;;;;;6.13;69.48;94516.81;5031432;28;20172;-82
2020/12/05 02:58:00;;;;;;;20.03;10.63;;;;;;;6.14;69.79;94507.78;5031169;28;20208;-82
2020/12/05 03:00:25;;;;;;;17.93;10.23;;;;;;;6.05;69.69;94515.78;5031437;28;20262;-84
2020/12/05 03:02:51;;;;;;;19.90;10.43;;;;;;;6.16;69.89;94513.50;5027214;28;20319;-82
2020/12/05 03:05:17;;;;;;;23.40;11.47;;;;;;;6.07;69.11;94503.00;5031765;28;20255;-83
2020/12/05 03:07:43;;;;;;;22.13;11.40;;;;;;;6.22;69.04;94518.28;5030730;28;20200;-83
2020/12/05 03:10:09;;;;;;;18.47;10.87;;;;;;;6.21;68.63;94503.47;5031408;28;20594;-82
2020/12/05 03:12:35;;;;;;;16.90;10.30;;;;;;;6.37;68.15;94522.22;5033222;28;20188;-84
2020/12/05 03:15:00;;;;;;;17.90;9.90;;;;;;;6.48;68.22;94523.34;5030506;28;20953;-84
2020/12/05 03:17:26;;;;;;;20.73;10.80;;;;;;;6.35;68.68;94517.25;5035317;28;20203;-84
2020/12/05 03:19:51;;;;;;;20.20;10.83;;;;;;;6.37;69.27;94516.91;5036605;28;20222;-81
2020/12/05 03:22:17;;;;;;;20.83;11.37;;;;;;;6.46;68.88;94514.97;5034036;28;20753;-83
2020/12/05 03:24:42;;;;;;;22.80;11.43;;;;;;;6.34;69.89;94505.09;5031826;28;20188;-83
2020/12/05 03:27:08;;;;;;;18.97;11.13;;;;;;;6.36;70.23;94520.66;5031976;28;20637;-83
2020/12/05 03:29:33;;;;;;;20.13;11.63;;;;;;;6.24;70.05;94508.16;5030378;28;20227;-82
2020/12/05 03:32:03;;;;;;;18.87;10.80;;;;;;;6.25;69.65;94524.81;5031307;28;20234;-81
2020/12/05 03:34:29;;;;;;;21.70;10.47;;;;;;;6.13;69.91;94538.03;5030875;28;20169;-83
2020/12/05 03:36:54;;;;;;;17.63;10.60;;;;;;;5.91;71.92;94541.75;5033310;28;20628;-82
2020/12/05 03:39:20;;;;;;;22.63;11.63;;;;;;;6.01;71.76;94549.34;5031126;28;20196;-83
2020/12/05 03:41:45;;;;;;;21.60;11.40;;;;;;;6.29;71.05;94544.28;5031464;28;20258;-84
2020/12/05 03:44:11;;;;;;;18.30;10.13;;;;;;;6.42;69.70;94542.44;5031044;28;20218;-81
2020/12/05 03:46:37;;;;;;;16.63;10.43;;;;;;;6.50;69.43;94530.97;5032113;28;20226;-81
2020/12/05 03:49:03;;;;;;;18.20;10.10;;;;;;;6.36;69.93;94547.97;5034804;28;20214;-81
2020/12/05 03:51:28;;;;;;;19.77;10.17;;;;;;;6.10;70.34;94531.50;5034279;28;20586;-81
2020/12/05 03:53:54;;;;;;;19.87;10.33;;;;;;;6.36;69.48;94528.63;5035495;28;20606;-81
2020/12/05 03:56:19;;;;;;;17.63;9.60;;;;;;;6.37;69.26;94546.06;5033418;28;20179;-82
2020/12/05 03:58:45;;;;;;;22.97;10.67;;;;;;;6.24;70.60;94541.84;5034579;28;20654;-83
2020/12/05 04:01:11;;;;;;;20.57;10.37;;;;;;;6.47;68.90;94544.91;5034165;28;20327;-81
2020/12/05 04:03:36;;;;;;;21.63;10.93;;;;;;;6.41;69.79;94540.91;5034426;28;20271;-81
2020/12/05 04:06:04;;;;;;;21.73;10.67;;;;;;;6.40;69.07;94550.75;5034461;28;20169;-82
2020/12/05 04:08:29;;;;;;;19.23;10.80;;;;;;;6.45;68.95;94541.78;5034303;28;20587;-81
2020/12/05 04:10:55;;;;;;;17.17;10.27;;;;;;;6.36;69.60;94537.34;5036646;28;20669;-81
2020/12/05 04:13:21;;;;;;;20.43;10.37;;;;;;;6.55;68.70;94549.34;5034349;28;20172;-80
2020/12/05 04:15:46;;;;;;;18.03;10.27;;;;;;;6.46;68.70;94548.66;5034200;28;21156;-83
2020/12/05 04:18:12;;;;;;;17.37;10.50;;;;;;;6.57;68.70;94557.75;5034044;28;20187;-82
2020/12/05 04:20:37;;;;;;;17.20;10.77;;;;;;;6.46;69.10;94551.31;5034412;28;20223;-84
2020/12/05 04:23:03;;;;;;;18.03;10.07;;;;;;;6.55;68.50;94566.03;5033826;28;20172;-81
2020/12/05 04:25:28;;;;;;;18.63;10.47;;;;;;;6.58;68.13;94559.31;5033609;28;20200;-82
2020/12/05 04:27:54;;;;;;;20.53;11.07;;;;;;;6.59;67.99;94553.66;5035072;28;20208;-83
2020/12/05 04:30:20;;;;;;;17.37;10.77;;;;;;;6.46;68.23;94540.72;5034016;28;20231;-83
2020/12/05 04:32:45;;;;;;;16.77;10.53;;;;;;;6.39;68.46;94541.22;5033564;28;20651;-83
2020/12/05 04:35:11;;;;;;;15.77;8.97;;;;;;;6.61;67.75;94548.78;5033676;28;20176;-84
2020/12/05 04:37:36;;;;;;;19.97;11.13;;;;;;;6.19;69.63;94548.09;5034808;28;20234;-85
2020/12/05 04:40:03;;;;;;;19.00;11.33;;;;;;;6.28;69.82;94566.56;5035084;28;20189;-81
2020/12/05 04:42:29;;;;;;;18.83;9.97;;;;;;;6.36;68.77;94563.88;5034194;28;20527;-83
2020/12/05 04:44:55;;;;;;;16.60;9.47;;;;;;;6.35;68.55;94549.06;5033896;28;20590;-82
2020/12/05 04:47:20;;;;;;;17.37;10.47;;;;;;;6.09;69.53;94545.84;5032448;28;20625;-82
2020/12/05 04:49:46;;;;;;;19.83;10.23;;;;;;;6.39;69.29;94570.38;5033206;28;20231;-83
2020/12/05 04:52:14;;;;;;;16.73;9.70;;;;;;;6.49;69.15;94567.34;5015784;28;20176;-82
2020/12/05 04:54:41;;;;;;;20.40;9.67;;;;;;;6.58;68.32;94565.38;5033595;28;20177;-84
2020/12/05 04:57:08;;;;;;;16.93;9.47;;;;;;;6.54;68.87;94572.44;5036454;28;21156;-84
2020/12/05 04:59:33;;;;;;;22.77;10.80;;;;;;;6.22;69.63;94554.63;5036832;28;20587;-83
2020/12/05 05:01:59;;;;;;;19.30;10.50;;;;;;;6.35;69.21;94575.59;5033371;28;20589;-83
2020/12/05 05:04:25;;;;;;;20.83;9.20;;;;;;;6.19;69.01;94550.75;5015810;28;20203;-84
2020/12/05 05:06:50;;;;;;;21.50;10.10;;;;;;;6.04;70.31;94552.13;5032635;28;20173;-84
2020/12/05 05:09:16;;;;;;;17.73;9.90;;;;;;;6.31;69.76;94584.50;5033443;28;20203;-82
2020/12/05 05:11:54;;;;;;;20.07;11.23;;;;;;;6.26;69.88;94566.91;5032604;28;20662;-83
2020/12/05 05:14:19;;;;;;;20.17;10.57;;;;;;;6.11;71.21;94570.16;5032893;28;20165;-82
2020/12/05 05:16:45;;;;;;;20.87;11.07;;;;;;;5.92;71.46;94565.31;5034252;28;20625;-81
2020/12/05 05:19:20;;;;;;;19.07;11.37;;;;;;;6.07;71.82;94580.63;5032970;28;20196;-82
2020/12/05 05:21:46;;;;;;;19.57;10.67;;;;;;;6.20;70.44;94581.47;5032525;28;20271;-81
2020/12/05 05:24:18;;;;;;;18.23;10.67;;;;;;;5.95;71.61;94585.06;5032700;28;21152;-83
2020/12/05 05:27:07;;;;;;;20.80;10.80;;;;;;;6.17;71.55;94592.72;5031197;28;20220;-82
2020/12/05 05:29:39;;;;;;;18.20;11.37;;;;;;;5.76;72.24;94594.22;5032430;28;20637;-84
2020/12/05 05:32:10;;;;;;;23.00;12.37;;;;;;;5.96;72.95;94587.41;5033264;28;21171;-82
2020/12/05 05:34:36;;;;;;;20.83;11.00;;;;;;;5.43;74.52;94558.88;5033810;28;20571;-82
2020/12/05 05:37:13;;;;;;;23.50;12.40;;;;;;;5.99;73.21;94581.47;5032528;28;20582;-84
2020/12/05 05:39:45;;;;;;;21.87;12.43;;;;;;;6.29;72.79;94582.19;5031325;28;20609;-83
2020/12/05 05:42:11;;;;;;;20.63;11.43;;;;;;;5.83;74.08;94575.16;5032583;28;20664;-84
2020/12/05 05:44:36;;;;;;;20.30;11.20;;;;;;;5.94;75.46;94568.41;5032170;28;20641;-81
2020/12/05 05:47:02;;;;;;;20.13;11.33;;;;;;;6.28;72.13;94572.66;5032136;28;20229;-80
2020/12/05 05:49:32;;;;;;;24.60;12.03;;;;;;;6.49;72.76;94583.25;5035435;28;20228;-83
2020/12/05 05:51:59;;;;;;;24.83;12.73;;;;;;;6.21;73.50;94595.50;5031897;28;20185;-83
2020/12/05 05:54:27;;;;;;;20.43;11.07;;;;;;;6.30;72.56;94593.56;5031898;28;20558;-85
2020/12/05 05:56:58;;;;;;;20.80;11.83;;;;;;;6.01;73.22;94566.03;5031875;28;20594;-84
2020/12/05 05:59:24;;;;;;;22.17;13.70;;;;;;;6.04;73.11;94575.97;5032139;28;20609;-81
2020/12/05 06:01:51;;;;;;;20.07;12.10;;;;;;;6.10;73.14;94577.31;5030442;28;21203;-85
2020/12/05 06:04:35;;;;;;;23.53;13.43;;;;;;;5.88;73.92;94593.50;5034215;28;20591;-84
2020/12/05 06:07:01;;;;;;;19.90;12.07;;;;;;;6.10;73.82;94587.16;5035717;28;20586;-83
2020/12/05 06:09:46;;;;;;;22.73;13.20;;;;;;;6.30;73.20;94601.53;5031357;28;21010;-84
2020/12/05 06:12:12;;;;;;;21.10;12.43;;;;;;;6.35;73.19;94606.63;5032009;28;20586;-84
2020/12/05 06:14:39;;;;;;;21.20;11.20;;;;;;;6.35;73.93;94594.16;5032140;28;20641;-84
2020/12/05 06:17:06;;;;;;;16.53;9.93;;;;;;;6.09;75.40;94578.44;5030977;28;21366;-84
2020/12/05 06:19:32;;;;;;;16.07;9.30;;;;;;;6.55;75.80;94603.16;5030513;28;20583;-83
2020/12/05 06:21:57;;;;;;;10.23;7.07;;;;;;;6.65;75.98;94582.66;5014958;28;20606;-84
2020/12/05 06:24:34;;;;;;;10.67;7.27;;;;;;;6.78;74.72;94576.25;5030767;28;21082;-82
2020/12/05 06:27:01;;;;;;;11.60;6.87;;;;;;;7.07;75.06;94612.50;5031212;28;20307;-83
2020/12/05 06:29:27;;;;;;;11.17;7.37;;;;;;;7.08;74.52;94606.09;5030133;28;20630;-82
2020/12/05 06:31:53;;;;;;;11.10;6.73;;;;;;;7.22;74.29;94621.72;4997525;28;20609;-80
2020/12/05 06:34:41;;;;;;;12.53;7.77;;;;;;;7.32;73.90;94626.59;5035460;28;20674;-82
2020/12/05 06:37:11;;;;;;;14.60;7.53;;;;;;;7.30;73.66;94628.81;5032020;28;20216;-84
2020/12/05 06:39:37;;;;;;;13.27;8.00;;;;;;;7.04;74.04;94598.00;5033210;28;20697;-84
2020/12/05 06:42:03;;;;;;;11.93;7.77;;;;;;;7.08;73.79;94617.50;5029982;28;20601;-81
2020/12/05 06:44:31;;;;;;;14.07;7.47;;;;;;;7.24;73.96;94638.09;5031517;28;20168;-83
2020/12/05 06:46:58;;;;;;;11.77;7.70;;;;;;;7.10;74.66;94617.94;5031533;28;20188;-83
2020/12/05 06:49:39;;;;;;;16.80;8.47;;;;;;;7.25;73.95;94644.97;5031150;28;20607;-78
2020/12/05 06:52:26;;;;;;;13.30;8.13;;;;;;;7.32;74.05;94645.97;5030849;28;20606;-78
2020/12/05 06:55:15;;;;;;;13.03;7.80;;;;;;;7.48;73.61;94648.78;5030183;28;20598;-79
2020/12/05 06:57:42;;;;;;;11.23;7.63;;;;;;;7.15;74.94;94632.88;5029890;28;20603;-79
2020/12/05 07:00:24;;;;;;;19.90;9.60;;;;;;;7.17;73.97;94630.66;5031047;28;21283;-79
2020/12/05 07:03:00;;;;;;;20.90;12.07;;;;;;;7.06;73.40;94638.28;5031221;28;20598;-79
2020/12/05 07:05:26;;;;;;;19.60;11.13;;;;;;;7.26;73.36;94644.63;5031023;28;20583;-79
2020/12/05 07:07:53;;;;;;;25.23;13.73;;;;;;;7.08;73.00;94632.66;5031092;28;20629;-79
2020/12/05 07:10:19;;;;;;;28.70;14.97;;;;;;;7.23;72.64;94652.47;5030927;28;20609;-79
2020/12/05 07:12:45;;;;;;;28.53;15.00;;;;;;;7.09;73.37;94660.75;5031077;28;20594;-79
2020/12/05 07:15:25;;;;;;;22.20;13.60;;;;;;;7.09;73.43;94648.25;5030887;28;20698;-80
2020/12/05 07:17:51;;;;;;;24.30;13.87;;;;;;;6.73;74.71;94654.19;5031013;28;20212;-79
2020/12/05 07:20:16;;;;;;;26.13;13.60;;;;;;;7.21;72.20;94646.72;5030208;28;20587;-79
2020/12/05 07:22:44;;;;;;;25.40;14.07;;;;;;;7.19;71.99;94646.28;5035025;28;21041;-78
2020/12/05 07:25:10;;;;;;;25.87;13.93;;;;;;;7.20;72.40;94656.56;5034813;28;20179;-79
2020/12/05 07:27:36;;;;;;;27.03;14.43;;;;;;;6.84;73.48;94649.25;5034582;28;21107;-78
2020/12/05 07:30:02;;;;;;;27.27;14.63;;;;;;;6.99;73.94;94664.59;5034970;28;20599;-79
2020/12/05 07:32:34;;;;;;;25.40;13.33;;;;;;;7.22;73.07;94672.16;5034463;28;20251;-79
2020/12/05 07:35:08;;;;;;;25.50;13.70;;;;;;;7.49;72.21;94660.94;5034887;28;20271;-79
2020/12/05 07:37:34;;;;;;;23.00;12.17;;;;;;;7.50;72.61;94661.72;5034653;28;20605;-79
2020/12/05 07:40:00;;;;;;;24.63;13.37;;;;;;;7.61;72.03;94668.94;5034673;28;21136;-78
2020/12/05 07:42:35;;;;;;;18.83;11.77;;;;;;;7.66;71.92;94667.94;5033248;28;20180;-78
2020/12/05 07:45:05;;;;;;;19.80;12.57;;;;;;;7.77;71.97;94665.63;5034420;28;20567;-78
2020/12/05 07:47:31;;;;;;;24.73;12.73;;;;;;;7.77;71.63;94662.97;5034179;28;20595;-78
2020/12/05 07:49:56;;;;;;;22.53;12.23;;;;;;;7.88;71.22;94672.03;5034405;28;20703;-78
2020/12/05 07:52:22;;;;;;;20.93;12.70;;;;;;;7.81;72.15;94667.28;5034217;28;20217;-78
2020/12/05 07:54:55;;;;;;;18.90;11.17;;;;;;;8.00;71.62;94673.91;5034414;28;20591;-78
2020/12/05 07:57:31;;;;;;;22.40;11.53;;;;;;;8.11;71.36;94688.31;5034082;28;20172;-79
2020/12/05 08:00:10;;;;;;;17.00;10.43;;;;;;;8.04;71.59;94686.22;5034276;28;20603;-78
2020/12/05 08:02:35;;;;;;;16.33;10.47;;;;;;;8.28;70.93;94692.63;5034038;28;20587;-79
2020/12/05 08:05:00;;;;;;;18.47;8.77;;;;;;;8.33;70.72;94689.75;5034514;28;20583;-80
2020/12/05 08:07:39;;;;;;;13.07;8.00;;;;;;;8.49;70.12;94682.66;5033856;28;20179;-79
2020/12/05 08:10:06;;;;;;;14.43;9.10;;;;;;;8.35;70.95;94680.31;5032622;28;20192;-80
2020/12/05 08:12:42;;;;;;;13.97;9.40;;;;;;;8.53;70.34;94680.88;5037324;28;20567;-80
2020/12/05 08:15:08;;;;;;;12.07;7.60;;;;;;;8.69;69.68;94684.38;5038344;28;21006;-82
2020/12/05 08:17:35;;;;;;;9.53;6.57;;;;;;;8.85;68.84;94691.66;5050753;28;20595;-82
2020/12/05 08:20:04;;;;;;;10.37;6.00;;;;;;;8.71;69.16;94700.78;5017426;28;20263;-81
2020/12/05 08:22:30;;;;;;;10.83;6.67;;;;;;;8.76;68.53;94688.38;5034199;28;20594;-82
2020/12/05 08:24:57;;;;;;;9.43;6.33;;;;;;;8.64;68.72;94689.94;5034597;28;21061;-81
2020/12/05 08:27:22;;;;;;;8.67;6.07;;;;;;;8.75;68.51;94690.22;5032668;28;20706;-82
2020/12/05 08:29:48;;;;;;;9.10;5.97;;;;;;;8.84;68.61;94704.19;5033583;28;20675;-82
2020/12/05 08:32:17;;;;;;;8.97;6.17;;;;;;;8.95;68.48;94717.78;5034831;28;20247;-82
2020/12/05 08:34:43;;;;;;;10.37;6.60;;;;;;;8.95;67.82;94712.47;5034907;28;20230;-82
2020/12/05 08:37:08;;;;;;;10.17;6.20;;;;;;;8.80;68.68;94702.53;5034509;28;20591;-83
2020/12/05 08:39:34;;;;;;;9.93;6.30;;;;;;;8.95;68.21;94718.56;5036522;28;20689;-81
2020/12/05 08:41:59;;;;;;;16.10;7.07;;;;;;;9.05;67.87;94716.56;5021998;28;20179;-81
2020/12/05 08:44:28;;;;;;;12.70;6.90;;;;;;;9.15;67.94;94716.84;5036680;28;20220;-82
2020/12/05 08:47:01;;;;;;;10.80;7.27;;;;;;;9.14;68.25;94714.50;5032637;28;20195;-81
2020/12/05 08:49:26;;;;;;;11.90;6.97;;;;;;;9.28;67.49;94718.34;5033030;28;20736;-78
2020/12/05 08:51:52;;;;;;;10.67;6.93;;;;;;;9.35;67.12;94715.06;5033453;28;20590;-78
2020/12/05 08:54:18;;;;;;;7.50;5.87;;;;;;;9.50;66.38;94718.91;5017029;28;20263;-79
2020/12/05 08:56:44;;;;;;;9.83;6.40;;;;;;;9.78;65.94;94722.28;5019201;28;21184;-79
2020/12/05 08:59:10;;;;;;;10.93;6.23;;;;;;;9.96;65.05;94713.94;5020305;28;20176;-78
2020/12/05 09:01:42;;;;;;;14.97;5.93;;;;;;;10.01;64.42;94719.78;5012025;28;20620;-78
2020/12/05 09:04:16;;;;;;;10.60;6.57;;;;;;;9.85;65.09;94720.91;5012503;28;21243;-77
2020/12/05 09:06:41;;;;;;;14.13;8.37;;;;;;;9.79;64.65;94712.38;4981967;28;20690;-77
2020/12/05 09:09:07;;;;;;;12.97;7.70;;;;;;;9.80;66.29;94730.69;5012887;28;20685;-77
2020/12/05 09:11:33;;;;;;;12.80;7.60;;;;;;;9.83;66.63;94725.81;5013787;28;20189;-76
2020/12/05 09:13:58;;;;;;;11.67;7.60;;;;;;;9.95;65.26;94725.72;5013736;28;20648;-79
2020/12/05 09:16:33;;;;;;;13.07;8.33;;;;;;;10.05;65.96;94725.22;5012831;28;20259;-78
2020/12/05 09:18:59;;;;;;;16.93;10.60;;;;;;;10.03;65.76;94724.78;5010505;28;20192;-79
2020/12/05 09:21:24;;;;;;;11.87;7.57;;;;;;;10.12;65.31;94720.03;5024030;28;20641;-77
2020/12/05 09:24:03;;;;;;;10.30;7.07;;;;;;;10.21;64.73;94730.53;5033050;28;20596;-77
2020/12/05 09:26:28;;;;;;;13.90;7.03;;;;;;;10.10;65.02;94730.31;5030692;28;20669;-78
2020/12/05 09:28:54;;;;;;;16.23;9.37;;;;;;;10.16;65.49;94736.16;5032318;28;20606;-79
2020/12/05 09:31:20;;;;;;;15.07;9.40;;;;;;;9.93;65.95;94735.94;5023260;28;20192;-79
2020/12/05 09:33:45;;;;;;;12.37;7.97;;;;;;;10.09;65.46;94734.06;5012296;28;20227;-78
2020/12/05 09:36:11;;;;;;;12.70;8.23;;;;;;;10.04;65.10;94728.97;5012274;28;20216;-79
2020/12/05 09:38:37;;;;;;;14.70;8.83;;;;;;;10.15;64.88;94734.56;5012463;28;20251;-78
2020/12/05 09:41:02;;;;;;;12.63;8.23;;;;;;;10.21;65.44;94728.66;5013158;28;20206;-77
2020/12/05 09:43:28;;;;;;;10.57;6.93;;;;;;;10.19;65.45;94722.09;5012382;28;20546;-78
2020/12/05 09:45:53;;;;;;;15.80;7.20;;;;;;;10.27;64.38;94727.31;5011933;28;20547;-79
2020/12/05 09:48:19;;;;;;;11.67;7.53;;;;;;;10.31;64.45;94733.47;5012352;28;20575;-81
2020/12/05 09:50:44;;;;;;;12.20;6.93;;;;;;;10.21;64.71;94725.19;5011886;28;20227;-81
2020/12/05 09:53:10;;;;;;;11.80;7.87;;;;;;;10.30;64.92;94723.94;5012103;28;20248;-79
2020/12/05 09:55:35;;;;;;;11.83;7.33;;;;;;;10.32;64.56;94720.91;5012281;28;20153;-83
2020/12/05 09:58:01;;;;;;;9.97;7.27;;;;;;;10.51;64.43;94720.19;5011874;28;20268;-81
2020/12/05 10:00:27;;;;;;;9.10;6.40;;;;;;;10.59;64.33;94713.88;5025704;28;20191;-82
2020/12/05 10:02:52;;;;;;;13.00;7.87;;;;;;;10.73;63.15;94716.09;5030447;28;20267;-77
2020/12/05 10:05:18;;;;;;;11.73;7.07;;;;;;;10.84;62.96;94709.84;5031923;28;20173;-81
2020/12/05 10:07:43;;;;;;;10.83;6.77;;;;;;;11.08;62.54;94706.13;5030125;28;20195;-78
2020/12/05 10:10:09;;;;;;;8.60;6.10;;;;;;;11.58;61.33;94722.34;5031737;28;20180;-79
2020/12/05 10:12:35;;;;;;;9.27;6.03;;;;;;;11.70;60.60;94713.38;5031766;28;20191;-78
2020/12/05 10:15:01;;;;;;;8.47;5.80;;;;;;;11.92;59.70;94712.63;5032722;28;20172;-80
2020/12/05 10:17:27;;;;;;;8.50;5.83;;;;;;;12.03;58.51;94718.16;5031668;28;20169;-79
2020/12/05 10:19:52;;;;;;;8.27;5.57;;;;;;;11.70;59.47;94710.69;5031726;28;20926;-79
2020/12/05 10:22:18;;;;;;;7.70;5.47;;;;;;;11.63;59.99;94704.09;5032175;28;20206;-80
2020/12/05 10:24:43;;;;;;;12.40;5.87;;;;;;;11.44;60.32;94700.66;5031394;28;20168;-84
2020/12/05 10:27:09;;;;;;;8.40;5.87;;;;;;;11.34;61.15;94707.38;5030645;28;20259;-79
2020/12/05 10:29:34;;;;;;;8.17;6.60;;;;;;;11.13;62.43;94705.06;5032089;28;20294;-79
2020/12/05 10:32:00;;;;;;;10.70;6.57;;;;;;;11.25;61.65;94701.47;5031630;28;20172;-80
2020/12/05 10:34:26;;;;;;;9.37;5.57;;;;;;;11.19;61.85;94703.66;5031198;28;20203;-81
2020/12/05 10:36:53;;;;;;;8.70;5.40;;;;;;;11.06;61.47;94692.34;5031487;28;20176;-80
2020/12/05 10:39:18;;;;;;;9.60;5.30;;;;;;;11.17;61.52;94705.91;5029903;28;20177;-80
2020/12/05 10:41:44;;;;;;;8.23;5.57;;;;;;;11.03;62.09;94681.59;5030139;28;21251;-80
2020/12/05 10:44:10;;;;;;;8.53;5.83;;;;;;;10.91;62.56;94697.75;5031483;28;20531;-80
2020/12/05 10:46:40;;;;;;;9.63;6.63;;;;;;;10.85;62.47;94692.69;5030258;28;20245;-81
2020/12/05 10:49:06;;;;;;;7.67;6.03;;;;;;;10.79;63.79;94699.44;5031324;28;20629;-80
2020/12/05 10:51:32;;;;;;;8.60;6.43;;;;;;;10.83;63.08;94700.28;5031226;28;20583;-80
2020/12/05 10:53:57;;;;;;;11.17;6.53;;;;;;;10.69;63.73;94683.97;5031124;28;20638;-82
2020/12/05 10:56:26;;;;;;;8.80;6.37;;;;;;;10.74;63.59;94699.72;5033573;28;20613;-80
2020/12/05 10:58:52;;;;;;;12.57;7.30;;;;;;;10.60;64.42;94705.50;5035681;28;20568;-82
2020/12/05 11:01:17;;;;;;;11.77;7.03;;;;;;;10.59;64.56;94700.53;5034172;28;20587;-80
2020/12/05 11:03:43;;;;;;;11.00;6.80;;;;;;;10.44;64.48;94688.00;5033655;28;20188;-81
2020/12/05 11:06:08;;;;;;;13.93;7.93;;;;;;;10.64;65.08;94705.59;5035111;28;20647;-81
2020/12/05 11:08:34;;;;;;;14.60;7.93;;;;;;;10.58;64.62;94694.41;5035180;28;20745;-80
2020/12/05 11:10:59;;;;;;;13.90;8.40;;;;;;;10.64;64.20;94696.81;5035172;28;20237;-82
2020/12/05 11:13:25;;;;;;;14.80;7.80;;;;;;;10.59;64.51;94693.28;5035177;28;20203;-83
2020/12/05 11:15:50;;;;;;;9.70;7.27;;;;;;;10.56;64.18;94685.22;5033743;28;20185;-80
2020/12/05 11:18:16;;;;;;;11.63;7.63;;;;;;;10.49;64.94;94690.38;5034977;28;20199;-79
2020/12/05 11:20:41;;;;;;;11.07;7.83;;;;;;;10.51;64.64;94683.59;5033790;28;20637;-82
2020/12/05 11:23:07;;;;;;;13.03;6.87;;;;;;;10.42;65.64;94685.66;5034742;28;20251;-81
2020/12/05 11:25:32;;;;;;;12.07;7.13;;;;;;;10.33;65.25;94688.56;5034672;28;20204;-81
2020/12/05 11:27:58;;;;;;;12.43;7.77;;;;;;;10.27;65.54;94667.81;5034634;28;20204;-81